Daily Tabular Data
[Select Refresh to Update]


10/17/18
Time         Wind Dir   Wind Spd  Wind Gust     Hum In   Humidity    Temp In       Temp  Raw Barom   Tot Rain Wind Chill Heat Ix In Heat Index  Dew Point  DailyRain   HourRain   RainRate
                            mph        mph          %          %         F         F         in         in         F         F         F         F         in         in      in/hr
12:00am           165          0          0         32         29       74.6       60.6      29.19       0.60       60.6       73.9       59.7       28.2       0.00       0.00      0.000
12:30am           168          0          1         31         28       74.4       62.1      29.18       0.60       62.1       73.7       61.2       28.6       0.00       0.00      0.000
1:00am            171          0          1         31         30       74.3       61.0      29.19       0.60       61.0       73.6       60.2       29.4       0.00       0.00      0.000
1:30am            176          0          2         31         28       74.2       62.2      29.18       0.60       62.2       73.5       61.3       28.7       0.00       0.00      0.000
2:00am            165          0          3         31         29       74.0       62.0      29.17       0.60       62.0       73.3       61.1       29.4       0.00       0.00      0.000
2:30am            178          0          2         31         32       74.0       61.4      29.18       0.60       61.4       73.3       60.7       31.3       0.00       0.00      0.000
3:00am            173          1          2         32         26       73.9       63.2      29.17       0.60       63.2       73.2       62.1       27.8       0.00       0.00      0.000
3:30am            172          0          2         32         27       73.7       62.7      29.17       0.60       62.7       73.0       61.7       28.3       0.00       0.00      0.000
4:00am            174          0          1         32         28       73.6       62.9      29.17       0.60       62.9       72.9       62.0       29.3       0.00       0.00      0.000
4:30am            187          0          2         32         29       73.4       62.6      29.18       0.60       62.6       72.7       61.7       29.9       0.00       0.00      0.000
5:00am            169          0          3         32         28       73.3       62.0      29.18       0.60       62.0       72.6       61.1       28.5       0.00       0.00      0.000
5:30am            168          0          3         31         27       73.2       62.9      29.19       0.60       62.9       72.5       61.9       28.4       0.00       0.00      0.000
6:00am            187          0          4         31         28       73.0       61.7      29.19       0.60       61.7       72.3       60.8       28.3       0.00       0.00      0.000
6:30am            178          2          4         31         28       73.0       61.6      29.19       0.60       61.6       72.3       60.7       28.2       0.00       0.00      0.000
7:00am            175          0          4         31         28       72.9       61.4      29.20       0.60       61.4       72.2       60.5       28.0       0.00       0.00      0.000
7:30am            182          1          4         31         27       72.8       62.6      29.21       0.60       62.6       72.1       61.6       28.2       0.00       0.00      0.000
8:00am            171          0          4         32         29       72.8       65.8      29.22       0.60       65.8       72.1       64.9       32.7       0.00       0.00      0.000
8:30am            169          0          1         32         34       72.8       67.1      29.23       0.60       67.1       72.1       66.6       37.8       0.00       0.00      0.000
9:00am            304          0          1         31         37       73.2       67.6      29.23       0.60       67.6       72.5       67.3       40.4       0.00       0.00      0.000
9:30am            284          0          0         30         37       73.9       68.8      29.24       0.60       68.8       73.1       68.5       41.5       0.00       0.00      0.000
10:00am           295          0          1         27         29       78.4       70.5      29.23       0.60       70.5       77.4       69.6       36.7       0.00       0.00      0.000
10:30am            20          0          3         29         27       75.1       72.8      29.22       0.60       72.8       74.2       71.8       36.9       0.00       0.00      0.000
11:00am           334          0          5         31         26       74.2       73.8      29.22       0.60       73.8       73.5       72.7       36.8       0.00       0.00      0.000
11:30am           302          0         11         32         27       74.0       74.2      29.22       0.60       74.2       73.3       73.2       38.1       0.00       0.00      0.000
12:00pm            11          7         12         32         30       74.1       75.6      29.21       0.60       75.6       73.4       74.8       42.0       0.00       0.00      0.000
12:30pm           317          0         13         33         26       74.2       76.2      29.21       0.60       76.2       73.6       75.1       38.8       0.00       0.00      0.000
1:00pm              9          2         13         33         24       74.3       77.4      29.19       0.60       77.4       73.7       76.2       37.8       0.00       0.00      0.000
1:30pm             12          8         11         33         23       74.4       77.9      29.18       0.60       77.9       73.8       76.7       37.2       0.00       0.00      0.000
2:00pm            349          8         12         34         22       74.5       77.9      29.16       0.60       77.9       74.0       76.6       36.0       0.00       0.00      0.000
2:30pm            349          8         16         34         21       74.7       78.0      29.15       0.60       78.0       74.2       76.6       34.9       0.00       0.00      0.000
3:00pm            344          1         12         34         20       74.9       77.8      29.15       0.60       77.8       74.4       76.4       33.6       0.00       0.00      0.000
3:30pm             29          8         13         34         21       75.0       77.0      29.15       0.60       77.0       74.5       75.6       34.1       0.00       0.00      0.000
4:00pm            355          5         13         34         24       75.2       76.5      29.14       0.60       76.5       74.7       75.3       37.1       0.00       0.00      0.000
4:30pm            338          0         10         35         26       75.3       76.8      29.14       0.60       76.8       74.8       75.7       39.4       0.00       0.00      0.000
5:00pm              9          3          8         35         29       75.4       76.4      29.13       0.60       76.4       74.9       75.5       41.8       0.00       0.00      0.000
5:30pm            327          1          5         35         32       75.4       76.4      29.13       0.60       76.4       74.9       75.7       44.4       0.00       0.00      0.000
6:00pm            343          1         10         35         37       75.6       73.3      29.14       0.60       73.3       75.1       73.0       45.5       0.00       0.00      0.000
6:30pm             11          0          8         35         49       75.6       70.3      29.15       0.60       70.3       75.1       71.0       50.3       0.00       0.00      0.000
7:00pm             13          0          1         36         55       75.6       69.1      29.16       0.60       69.1       75.2       70.4       52.3       0.00       0.00      0.000
7:30pm            344          1          3         36         57       75.7       67.9      29.17       0.60       67.9       75.3       69.4       52.1       0.00       0.00      0.000
8:00pm             22          0          2         36         58       75.7       66.8      29.18       0.60       66.8       75.3       68.4       51.6       0.00       0.00      0.000
8:30pm            186          0          1         36         57       75.7       65.9      29.18       0.60       65.9       75.3       67.4       50.3       0.00       0.00      0.000
9:00pm            171          0          3         37         53       75.7       65.5      29.19       0.60       65.5       75.4       66.6       47.9       0.00       0.00      0.000
9:30pm            171          0          1         37         70       75.6       70.7      29.19       0.60       70.7       75.3       73.7       60.4       0.00       0.00      0.000
10:00pm           134          0          1         37         48       75.5       64.4      29.20       0.60       64.4       75.2       65.0       44.3       0.00       0.00      0.000
10:30pm           187          0          2         37         48       75.5       64.0      29.20       0.60       64.0       75.2       64.6       43.9       0.00       0.00      0.000
11:00pm           172          0          1         36         46       75.4       62.8      29.21       0.60       62.8       75.0       63.2       41.7       0.00       0.00      0.000
11:30pm           186          2          3         36         45       75.3       62.6      29.20       0.60       62.6       74.9       62.9       41.0       0.00       0.00      0.000